ID Time Temp Humidity Light PM2.5 PM10 Voltage Extra Firmware Position Fcnt TTN version Gateways Distance RSSI LSNR Radiosettings
2026-05-07 18:41:13 16.25°C 56.25% 3.28V v2 No position 432 ttn.v3 - -111 -3.25 868.1MHz, SF9BW125, 4/5CR
2026-05-07 18:24:56 16.5°C 56.1875% 3.29V v2 No position 431 ttn.v3 - -111 0.75 867.1MHz, SF9BW125, 4/5CR
2026-05-07 18:08:39 16.5625°C 57% 3.29V v2 No position 430 ttn.v3 - -109 -6.25 868.5MHz, SF9BW125, 4/5CR
2026-05-07 17:52:22 16.4375°C 56.1875% 3.28V v2 No position 429 ttn.v3 - -115 1.25 867.9MHz, SF9BW125, 4/5CR
2026-05-07 17:36:05 16.75°C 56.5% 3.29V v2 No position 428 ttn.v3 - -110 -4.75 868.3MHz, SF9BW125, 4/5CR
2026-05-07 17:19:48 16.6875°C 55.625% 3.29V v2 No position 427 ttn.v3 - -113 -1.5 867.7MHz, SF9BW125, 4/5CR
- -109 -13.5 867.7MHz, SF9BW125, 4/5CR
- -109 -13.5 867.7MHz, SF9BW125, 4/5CR
2026-05-07 17:03:31 16.5625°C 57.0625% 3.28V v2 No position 426 ttn.v3 - -110 -8.25 868.1MHz, SF9BW125, 4/5CR
2026-05-07 16:47:14 16.5°C 57.75% 3.28V v2 No position 425 ttn.v3 - -110 -1.5 867.5MHz, SF9BW125, 4/5CR
2026-05-07 16:30:57 16.3125°C 57.3125% 3.29V v2 No position 424 ttn.v3 - -109 -6.75 868.5MHz, SF9BW125, 4/5CR
2026-05-07 16:14:40 16.75°C 57.0625% 3.29V v2 No position 423 ttn.v3 - -104 0.5 867.3MHz, SF9BW125, 4/5CR
2026-05-07 15:58:24 17°C 55.0625% 3.28V v2 No position 422 ttn.v3 - -103 -11.25 868.3MHz, SF9BW125, 4/5CR
2026-05-07 15:42:06 17.4375°C 51.0625% 3.29V v2 No position 421 ttn.v3 - -113 1.5 867.1MHz, SF9BW125, 4/5CR
2026-05-07 15:25:49 17.875°C 54.1875% 3.29V v2 No position 420 ttn.v3 - -111 -1.25 868.1MHz, SF9BW125, 4/5CR
2026-05-07 15:09:31 17.75°C 50.875% 3.29V v2 No position 419 ttn.v3 - -113 1.25 867.9MHz, SF9BW125, 4/5CR
- -123 -12 867.9MHz, SF9BW125, 4/5CR
2026-05-07 14:53:14 17.5625°C 50.25% 3.29V v2 No position 418 ttn.v3 - -107 -6.75 868.5MHz, SF9BW125, 4/5CR
2026-05-07 14:36:57 17.4375°C 53.75% 3.28V v2 No position 417 ttn.v3 - -113 -1 867.7MHz, SF9BW125, 4/5CR
2026-05-07 14:20:40 17.125°C 54.8125% 3.28V v2 No position 416 ttn.v3 - -107 -6.5 868.3MHz, SF9BW125, 4/5CR
2026-05-07 13:48:06 16.0625°C 59.1875% 3.29V v2 No position 414 ttn.v3 - -109 -3.75 868.1MHz, SF9BW125, 4/5CR
2026-05-07 13:31:50 15.8125°C 58.9375% 3.28V v2 No position 413 ttn.v3 - -111 1.25 867.3MHz, SF9BW125, 4/5CR
2026-05-07 13:15:33 15.8125°C 59.9375% 3.29V v2 No position 412 ttn.v3 - -111 -2.75 868.5MHz, SF9BW125, 4/5CR
2026-05-07 12:59:17 15.5625°C 60.75% 3.29V v2 No position 411 ttn.v3 - -111 0.75 867.1MHz, SF9BW125, 4/5CR
2026-05-07 12:26:44 14.875°C 64.4375% 3.29V v2 No position 409 ttn.v3 - -112 0.75 867.9MHz, SF9BW125, 4/5CR
2026-05-07 12:10:28 14.625°C 65.375% 3.29V v2 No position 408 ttn.v3 - -111 -1.5 868.1MHz, SF9BW125, 4/5CR
2026-05-07 11:54:11 14.125°C 68.625% 3.29V v2 No position 407 ttn.v3 - -113 -1 867.7MHz, SF9BW125, 4/5CR
2026-05-07 11:37:55 13.6875°C 69.6875% 3.28V v2 No position 406 ttn.v3 - -111 -6.5 868.5MHz, SF9BW125, 4/5CR
2026-05-07 11:05:23 13.0625°C 73.5% 3.29V v2 No position 404 ttn.v3 - -108 -7.5 868.3MHz, SF9BW125, 4/5CR
2026-05-07 10:49:08 12.625°C 75.875% 3.29V v2 No position 403 ttn.v3 - -111 1.25 867.3MHz, SF9BW125, 4/5CR
- -122 -10.5 867.3MHz, SF9BW125, 4/5CR
- -115 -12 867.3MHz, SF9BW125, 4/5CR
2026-05-07 10:16:37 12.0625°C 81.4375% 3.29V v2 No position 401 ttn.v3 - -111 0 867.1MHz, SF9BW125, 4/5CR
- -121 -11.5 867.1MHz, SF9BW125, 4/5CR
2026-05-07 10:00:21 11.625°C 79.75% 3.29V v2 No position 400 ttn.v3 - -110 -8 868.5MHz, SF9BW125, 4/5CR
2026-05-07 09:44:06 11.125°C 84.125% 3.29V v2 No position 399 ttn.v3 - -116 -0.75 867.9MHz, SF9BW125, 4/5CR
- -117 -9.75 867.9MHz, SF9BW125, 4/5CR
- -117 -9.75 867.9MHz, SF9BW125, 4/5CR
- -124 -11.25 867.9MHz, SF9BW125, 4/5CR
2026-05-07 09:27:51 10.8125°C 84.375% 3.29V v2 No position 398 ttn.v3 - -111 -4 868.3MHz, SF9BW125, 4/5CR
2026-05-07 09:11:36 10.5°C 84% 3.29V v2 No position 397 ttn.v3 - -113 0.75 867.7MHz, SF9BW125, 4/5CR
- -111 -6.75 867.7MHz, SF9BW125, 4/5CR
- -111 -6.75 867.7MHz, SF9BW125, 4/5CR
2026-05-07 08:39:06 10°C 90.375% 3.29V v2 No position 395 ttn.v3 - -102 -8.5 867.5MHz, SF9BW125, 4/5CR
2026-05-07 08:22:51 9.875°C 89.5625% 3.29V v2 No position 394 ttn.v3 - -109 -5.75 868.5MHz, SF9BW125, 4/5CR
2026-05-07 08:06:36 9.75°C 92.25% 3.29V v2 No position 393 ttn.v3 - -110 -2.75 867.3MHz, SF9BW125, 4/5CR
2026-05-07 07:50:21 9.5°C 94.625% 3.29V v2 No position 392 ttn.v3 - -109 -8.5 868.3MHz, SF9BW125, 4/5CR
2026-05-07 07:34:06 9.25°C 96.375% 3.29V v2 No position 391 ttn.v3 - -111 1.5 867.1MHz, SF9BW125, 4/5CR
- -129 -13.25 867.1MHz, SF9BW125, 4/5CR
2026-05-07 07:17:52 9.0625°C 97.625% 3.29V v2 No position 390 ttn.v3 - -113 -2.5 868.1MHz, SF9BW125, 4/5CR
2026-05-07 07:01:37 8.875°C 99.4375% 3.29V v2 No position 389 ttn.v3 - -110 0.75 867.9MHz, SF9BW125, 4/5CR
- -112 -7.75 867.9MHz, SF9BW125, 4/5CR
- -112 -7.75 867.9MHz, SF9BW125, 4/5CR
2026-05-07 06:45:22 8.75°C 99.625% 3.29V v2 No position 388 ttn.v3 - -109 -4.75 868.5MHz, SF9BW125, 4/5CR
2026-05-07 06:12:53 8.75°C 101.125% 3.29V v2 No position 386 ttn.v3 - -109 -5.75 868.3MHz, SF9BW125, 4/5CR
2026-05-07 05:56:38 8.8125°C 100.25% 3.29V v2 No position 385 ttn.v3 - -113 0.75 867.5MHz, SF9BW125, 4/5CR
2026-05-07 05:42:35 8.875°C 101.938% 3.29V v2 No position 384 ttn.v3 - -113 -1.5 868.1MHz, SF12BW125, 4/5CR
- -105 -16.5 868.1MHz, SF12BW125, 4/5CR
- -105 -16.5 868.1MHz, SF12BW125, 4/5CR
2026-05-07 05:24:19 9°C 102.375% 3.29V v2 No position 383 ttn.v3 - -109 2.5 867.3MHz, SF9BW125, 4/5CR
2026-05-07 05:08:05 9°C 101.25% 3.29V v2 No position 382 ttn.v3 - -105 -7.75 868.5MHz, SF9BW125, 4/5CR
2026-05-07 04:51:50 9°C 100.25% 3.29V v2 No position 381 ttn.v3 - -110 1.75 867.1MHz, SF9BW125, 4/5CR
2026-05-07 04:35:35 9.0625°C 99.75% 3.29V v2 No position 380 ttn.v3 - -109 -4 868.3MHz, SF9BW125, 4/5CR
2026-05-07 04:19:20 9°C 100.062% 3.29V v2 No position 379 ttn.v3 - -111 0.75 867.9MHz, SF9BW125, 4/5CR
2026-05-07 04:03:06 9°C 102.125% 3.29V v2 No position 378 ttn.v3 - -107 -3.25 868.1MHz, SF9BW125, 4/5CR
2026-05-07 03:46:51 8.9375°C 103.25% 3.29V v2 No position 377 ttn.v3 - -108 1.5 867.7MHz, SF9BW125, 4/5CR
2026-05-07 03:30:36 8.875°C 103.75% 3.29V v2 No position 376 ttn.v3 - -110 -0.75 868.5MHz, SF9BW125, 4/5CR
2026-05-07 02:58:07 9.3125°C 101% 3.29V v2 No position 374 ttn.v3 - -109 -5.5 868.3MHz, SF9BW125, 4/5CR
2026-05-07 02:41:52 9.75°C 99.3125% 3.29V v2 No position 373 ttn.v3 - -111 3.25 867.3MHz, SF9BW125, 4/5CR
- -105 -8.75 867.3MHz, SF9BW125, 4/5CR
- -105 -8.75 867.3MHz, SF9BW125, 4/5CR
2026-05-07 02:25:37 10.25°C 97.8125% 3.29V v2 No position 372 ttn.v3 - -113 -1.25 868.1MHz, SF9BW125, 4/5CR
2026-05-07 02:09:21 10.625°C 95.1875% 3.29V v2 No position 371 ttn.v3 - -113 3.25 867.1MHz, SF9BW125, 4/5CR
- -113 -10.75 867.1MHz, SF9BW125, 4/5CR
- -113 -10.75 867.1MHz, SF9BW125, 4/5CR
- -126 -13.75 867.1MHz, SF9BW125, 4/5CR
2026-05-07 01:36:51 10.875°C 92.1875% 3.29V v2 No position 369 ttn.v3 - -113 2.5 867.9MHz, SF9BW125, 4/5CR
2026-05-07 01:20:36 11°C 90.875% 3.29V v2 No position 368 ttn.v3 - -108 -5 868.3MHz, SF9BW125, 4/5CR
2026-05-07 01:04:20 11.0625°C 89.1875% 3.29V v2 No position 367 ttn.v3 - -111 3.25 867.7MHz, SF9BW125, 4/5CR
2026-05-07 00:31:50 11.0625°C 87.125% 3.29V v2 No position 365 ttn.v3 - -109 0.75 867.5MHz, SF9BW125, 4/5CR
2026-05-06 23:59:19 11.1875°C 86.5625% 3.29V v2 No position 363 ttn.v3 - -111 -2.75 867.3MHz, SF9BW125, 4/5CR
2026-05-06 23:43:04 11.125°C 84.5625% 3.29V v2 No position 362 ttn.v3 - -115 -4 868.3MHz, SF9BW125, 4/5CR
2026-05-06 23:26:48 11.125°C 89.1875% 3.29V v2 No position 361 ttn.v3 - -110 2.75 867.1MHz, SF9BW125, 4/5CR
2026-05-06 22:54:18 11.25°C 87.625% 3.29V v2 No position 359 ttn.v3 - -113 1 867.9MHz, SF9BW125, 4/5CR
- -123 -14.75 867.9MHz, SF9BW125, 4/5CR
2026-05-06 22:38:03 11.25°C 86% 3.29V v2 No position 358 ttn.v3 - -113 -4.5 868.5MHz, SF9BW125, 4/5CR
2026-05-06 22:21:47 11.375°C 84.625% 3.29V v2 No position 357 ttn.v3 - -111 1.25 867.7MHz, SF9BW125, 4/5CR
2026-05-06 22:05:32 11.4375°C 83.25% 3.29V v2 No position 356 ttn.v3 - -110 -4.5 868.3MHz, SF9BW125, 4/5CR
2026-05-06 21:49:16 11.5°C 80.375% 3.29V v2 No position 355 ttn.v3 - -109 1.75 867.5MHz, SF9BW125, 4/5CR
2026-05-06 21:16:45 11.625°C 77.25% 3.29V v2 No position 353 ttn.v3 - -108 3.25 867.3MHz, SF9BW125, 4/5CR
2026-05-06 21:00:30 11.6875°C 76.6875% 3.29V v2 No position 352 ttn.v3 - -99 -6.5 868.5MHz, SF9BW125, 4/5CR
2026-05-06 20:44:14 11.75°C 75.875% 3.29V v2 No position 351 ttn.v3 - -110 2.5 867.1MHz, SF9BW125, 4/5CR
- -111 -11.75 867.1MHz, SF9BW125, 4/5CR
- -111 -11.75 867.1MHz, SF9BW125, 4/5CR
2026-05-06 20:27:59 11.8125°C 75.875% 3.29V v2 No position 350 ttn.v3 - -110 -4.5 868.3MHz, SF9BW125, 4/5CR
2026-05-06 20:11:43 11.9375°C 74.875% 3.29V v2 No position 349 ttn.v3 - -115 2 867.9MHz, SF9BW125, 4/5CR
- -115 -8.75 867.9MHz, SF9BW125, 4/5CR
- -115 -8.75 867.9MHz, SF9BW125, 4/5CR
2026-05-06 19:55:28 12.0625°C 75.3125% 3.29V v2 No position 348 ttn.v3 - -108 -4.25 868.1MHz, SF9BW125, 4/5CR
2026-05-06 19:39:12 12.0625°C 77.375% 3.29V v2 No position 347 ttn.v3 - -110 1.25 867.7MHz, SF9BW125, 4/5CR
2026-05-06 19:22:57 12.125°C 76.5% 3.29V v2 No position 346 ttn.v3 - -111 -3 868.5MHz, SF9BW125, 4/5CR
2026-05-06 19:06:41 12.1875°C 77.625% 3.29V v2 No position 345 ttn.v3 - -108 -4.25 867.5MHz, SF9BW125, 4/5CR
2026-05-06 18:50:26 12.125°C 80% 3.28V v2 No position 344 ttn.v3 - -105 -10.25 868.3MHz, SF9BW125, 4/5CR
2026-05-06 18:34:10 11.875°C 80.0625% 3.29V v2 No position 343 ttn.v3 - -106 -0.25 867.3MHz, SF9BW125, 4/5CR
2026-05-06 18:17:55 12.125°C 78.75% 3.29V v2 No position 342 ttn.v3 - -111 -5.75 868.1MHz, SF9BW125, 4/5CR
2026-05-06 18:01:39 12.3125°C 77.625% 3.28V v2 No position 341 ttn.v3 - -113 -0.75 867.1MHz, SF9BW125, 4/5CR
2026-05-06 17:45:23 12.5625°C 74.25% 3.29V v2 No position 340 ttn.v3 - -108 -6.25 868.5MHz, SF9BW125, 4/5CR
2026-05-06 17:29:08 12.625°C 72.4375% 3.29V v2 No position 339 ttn.v3 - -111 0 867.9MHz, SF9BW125, 4/5CR
2026-05-06 17:12:52 12.9375°C 69.5% 3.29V v2 No position 338 ttn.v3 - -107 -11.25 868.3MHz, SF9BW125, 4/5CR
2026-05-06 16:56:36 12.875°C 69.0625% 3.29V v2 No position 337 ttn.v3 - -104 -0.25 867.7MHz, SF9BW125, 4/5CR
2026-05-06 16:07:48 13.375°C 63.75% 3.29V v2 No position 334 ttn.v3 - -111 -4.75 868.5MHz, SF9BW125, 4/5CR
2026-05-06 15:51:32 14.0625°C 61.25% 3.29V v2 No position 333 ttn.v3 - -123 -10.75 867.3MHz, SF9BW125, 4/5CR
2026-05-06 15:35:16 14.5°C 58.375% 3.29V v2 No position 332 ttn.v3 - -111 -10 868.3MHz, SF9BW125, 4/5CR
2026-05-06 15:19:00 14.5°C 59.625% 3.29V v2 No position 331 ttn.v3 - -109 -2 867.1MHz, SF9BW125, 4/5CR
2026-05-06 15:02:44 14.8125°C 61.25% 3.29V v2 No position 330 ttn.v3 - -113 -10 868.1MHz, SF9BW125, 4/5CR
2026-05-06 14:46:27 14.625°C 63.625% 3.29V v2 No position 329 ttn.v3 - -111 1.75 867.9MHz, SF9BW125, 4/5CR
- -111 -6.75 867.9MHz, SF9BW125, 4/5CR
- -111 -6.75 867.9MHz, SF9BW125, 4/5CR
2026-05-06 14:30:11 14.75°C 62.375% 3.29V v2 No position 328 ttn.v3 - -105 -7.25 868.5MHz, SF9BW125, 4/5CR
2026-05-06 14:13:55 14.875°C 64.625% 3.28V v2 No position 327 ttn.v3 - -110 1.25 867.7MHz, SF9BW125, 4/5CR
- -104 -10.25 867.7MHz, SF9BW125, 4/5CR
- -104 -10.25 867.7MHz, SF9BW125, 4/5CR
2026-05-06 13:57:39 14.875°C 64.125% 3.29V v2 No position 326 ttn.v3 - -109 -7.5 868.3MHz, SF9BW125, 4/5CR
2026-05-06 13:08:49 15.125°C 60.25% 3.29V v2 No position 323 ttn.v3 - -111 1.75 867.3MHz, SF9BW125, 4/5CR
- -125 -11.25 867.3MHz, SF9BW125, 4/5CR
2026-05-06 12:52:33 14.875°C 63.1875% 3.29V v2 No position 322 ttn.v3 - -110 -4.25 868.5MHz, SF9BW125, 4/5CR
2026-05-06 12:36:17 14.5°C 65.875% 3.29V v2 No position 321 ttn.v3 - -115 -0.5 867.1MHz, SF9BW125, 4/5CR
- -109 -9.75 867.1MHz, SF9BW125, 4/5CR
- -109 -9.75 867.1MHz, SF9BW125, 4/5CR
2026-05-06 12:20:01 14.375°C 66.0625% 3.29V v2 No position 320 ttn.v3 - -104 -7.25 868.3MHz, SF9BW125, 4/5CR
2026-05-06 12:03:44 14.0625°C 70.75% 3.29V v2 No position 319 ttn.v3 - -116 -5 867.9MHz, SF9BW125, 4/5CR
- -115 -9.5 867.9MHz, SF9BW125, 4/5CR
- -115 -9.5 867.9MHz, SF9BW125, 4/5CR
2026-05-06 11:31:12 13.6875°C 75.25% 3.29V v2 No position 317 ttn.v3 - -111 0 867.7MHz, SF9BW125, 4/5CR
- -109 -7 867.7MHz, SF9BW125, 4/5CR
- -109 -7 867.7MHz, SF9BW125, 4/5CR
2026-05-06 10:26:09 12.9375°C 83.8125% 3.29V v2 No position 313 ttn.v3 - -113 -1.25 867.3MHz, SF9BW125, 4/5CR
- -122 -9.25 867.3MHz, SF9BW125, 4/5CR
2026-05-06 10:09:54 12.625°C 91% 3.29V v2 No position 312 ttn.v3 - -113 -1.25 868.1MHz, SF9BW125, 4/5CR
2026-05-06 09:53:38 12°C 93.625% 3.29V v2 No position 311 ttn.v3 - -115 0 867.1MHz, SF9BW125, 4/5CR
2026-05-06 09:37:23 11.5°C 97.9375% 3.29V v2 No position 310 ttn.v3 - -108 -7.25 868.5MHz, SF9BW125, 4/5CR
2026-05-06 09:21:08 11.125°C 101.5% 3.29V v2 No position 309 ttn.v3 - -116 -0.25 867.9MHz, SF9BW125, 4/5CR
- -114 -11 867.9MHz, SF9BW125, 4/5CR
2026-05-06 09:04:53 10.875°C 108.188% 3.29V v2 No position 308 ttn.v3 - -107 -7.25 868.3MHz, SF9BW125, 4/5CR
2026-05-06 08:48:38 10.625°C 112.75% 3.29V v2 No position 307 ttn.v3 - -113 -0.25 867.7MHz, SF9BW125, 4/5CR
- -113 -5.25 867.7MHz, SF9BW125, 4/5CR
- -113 -5.25 867.7MHz, SF9BW125, 4/5CR
2026-05-06 08:32:22 10.25°C 117.188% 3.29V v2 No position 306 ttn.v3 - -105 -4 868.1MHz, SF9BW125, 4/5CR
2026-05-06 07:59:53 9.625°C 0.9375% 3.29V v2 No position 304 ttn.v3 - -113 -9.5 868.5MHz, SF9BW125, 4/5CR
2026-05-06 07:43:38 9.4375°C 4.1875% 3.29V v2 No position 303 ttn.v3 - -110 -7.5 867.3MHz, SF9BW125, 4/5CR
- -122 -13 867.3MHz, SF9BW125, 4/5CR
2026-05-06 07:27:24 9.25°C 9.0625% 3.29V v2 No position 302 ttn.v3 - -106 -9.75 868.3MHz, SF9BW125, 4/5CR
2026-05-06 07:11:09 9.125°C 12.5625% 3.29V v2 No position 301 ttn.v3 - -113 0.5 867.1MHz, SF9BW125, 4/5CR
- -111 -7.5 867.1MHz, SF9BW125, 4/5CR
- -111 -7.5 867.1MHz, SF9BW125, 4/5CR
2026-05-06 06:54:54 9°C 16.625% 3.29V v2 No position 300 ttn.v3 - -109 -3.25 868.1MHz, SF9BW125, 4/5CR
2026-05-06 06:38:39 8.9375°C 18.75% 3.29V v2 No position 299 ttn.v3 - -114 -0.75 867.9MHz, SF9BW125, 4/5CR
- -110 -3 867.9MHz, SF9BW125, 4/5CR
- -110 -3 867.9MHz, SF9BW125, 4/5CR
2026-05-06 06:22:25 8.9375°C 18.6875% 3.29V v2 No position 298 ttn.v3 - -111 -10.5 868.5MHz, SF9BW125, 4/5CR
2026-05-06 06:06:10 8.9375°C 18.5625% 3.29V v2 No position 297 ttn.v3 - -111 0.5 867.7MHz, SF9BW125, 4/5CR
2026-05-06 05:49:56 8.875°C 18.25% 3.29V v2 No position 296 ttn.v3 - -109 -6 868.3MHz, SF9BW125, 4/5CR
2026-05-06 05:17:26 9°C 16.375% 3.29V v2 No position 294 ttn.v3 - -110 -8 868.1MHz, SF9BW125, 4/5CR
- -110 -8 868.1MHz, SF9BW125, 4/5CR
- -119 -8.5 868.1MHz, SF9BW125, 4/5CR
2026-05-06 05:01:11 9.0625°C 12.625% 3.29V v2 No position 293 ttn.v3 - -113 0.75 867.3MHz, SF9BW125, 4/5CR
- -111 -10.5 867.3MHz, SF9BW125, 4/5CR
- -111 -10.5 867.3MHz, SF9BW125, 4/5CR
- -121 -12 867.3MHz, SF9BW125, 4/5CR
2026-05-06 04:44:57 9.1875°C 7.0625% 3.29V v2 No position 292 ttn.v3 - -110 -7.5 868.5MHz, SF9BW125, 4/5CR
2026-05-06 04:28:42 9.3125°C 1.25% 3.29V v2 No position 291 ttn.v3 - -110 -2.75 867.1MHz, SF9BW125, 4/5CR
2026-05-06 04:12:27 9.625°C 118.375% 3.29V v2 No position 290 ttn.v3 - -105 -6 868.3MHz, SF9BW125, 4/5CR
2026-05-06 03:56:12 9.9375°C 107.438% 3.29V v2 No position 289 ttn.v3 - -111 0.5 867.9MHz, SF9BW125, 4/5CR
- -111 -12.5 867.9MHz, SF9BW125, 4/5CR
- -111 -12.5 867.9MHz, SF9BW125, 4/5CR
2026-05-06 03:42:09 10.0625°C 104.125% 3.29V v2 No position 288 ttn.v3 - -107 -3.25 868.1MHz, SF12BW125, 4/5CR
2026-05-06 03:23:53 10.0625°C 102.562% 3.29V v2 No position 287 ttn.v3 - -113 0.5 867.7MHz, SF9BW125, 4/5CR
- -110 -6.25 867.7MHz, SF9BW125, 4/5CR
- -110 -6.25 867.7MHz, SF9BW125, 4/5CR
- -126 -13.25 867.7MHz, SF9BW125, 4/5CR
2026-05-06 03:07:38 10.0625°C 102.438% 3.29V v2 No position 286 ttn.v3 - -109 -4.75 868.5MHz, SF9BW125, 4/5CR
2026-05-06 02:51:23 10.125°C 101.188% 3.29V v2 No position 285 ttn.v3 - -110 -1.25 867.5MHz, SF9BW125, 4/5CR
2026-05-06 02:35:08 10.125°C 100.25% 3.29V v2 No position 284 ttn.v3 - -111 -5.5 868.3MHz, SF9BW125, 4/5CR
2026-05-06 02:18:53 10.1875°C 98.75% 3.29V v2 No position 283 ttn.v3 - -113 1.5 867.3MHz, SF9BW125, 4/5CR
- -107 -8.5 867.3MHz, SF9BW125, 4/5CR
- -107 -8.5 867.3MHz, SF9BW125, 4/5CR
- -123 -13.25 867.3MHz, SF9BW125, 4/5CR
2026-05-06 02:02:38 10.3125°C 97.75% 3.29V v2 No position 282 ttn.v3 - -115 -1.25 868.1MHz, SF9BW125, 4/5CR
2026-05-06 01:46:23 10.375°C 96% 3.29V v2 No position 281 ttn.v3 - -111 1.75 867.1MHz, SF9BW125, 4/5CR
- -126 -13.75 867.1MHz, SF9BW125, 4/5CR
2026-05-06 01:13:53 10.5°C 92.875% 3.29V v2 No position 279 ttn.v3 - -111 1.5 867.9MHz, SF9BW125, 4/5CR
- -115 -12 867.9MHz, SF9BW125, 4/5CR
- -115 -12 867.9MHz, SF9BW125, 4/5CR
2026-05-06 00:57:37 10.6875°C 92.1875% 3.29V v2 No position 278 ttn.v3 - -108 -4.75 868.3MHz, SF9BW125, 4/5CR
2026-05-06 00:41:22 10.875°C 91.5% 3.29V v2 No position 277 ttn.v3 - -111 -1.75 867.7MHz, SF9BW125, 4/5CR
2026-05-06 00:25:07 11°C 89.6875% 3.29V v2 No position 276 ttn.v3 - -113 -4.5 868.1MHz, SF9BW125, 4/5CR
2026-05-05 23:36:21 11.3125°C 88.625% 3.29V v2 No position 273 ttn.v3 - -110 2.5 867.3MHz, SF9BW125, 4/5CR
- -113 -6.25 867.3MHz, SF9BW125, 4/5CR
- -113 -6.25 867.3MHz, SF9BW125, 4/5CR
- -122 -9.75 867.3MHz, SF9BW125, 4/5CR
2026-05-05 23:03:51 11.5625°C 90.5% 3.29V v2 No position 271 ttn.v3 - -113 1 867.1MHz, SF9BW125, 4/5CR
- -115 -7.75 867.1MHz, SF9BW125, 4/5CR
- -115 -7.75 867.1MHz, SF9BW125, 4/5CR
- -123 -9 867.1MHz, SF9BW125, 4/5CR
- -124 -10.75 867.1MHz, SF9BW125, 4/5CR
2026-05-05 22:47:35 11.6875°C 90.375% 3.29V v2 No position 270 ttn.v3 - -105 -6.5 868.1MHz, SF9BW125, 4/5CR
2026-05-05 22:31:20 11.75°C 89.1875% 3.29V v2 No position 269 ttn.v3 - -114 -1.5 867.9MHz, SF9BW125, 4/5CR
- -121 -12 867.9MHz, SF9BW125, 4/5CR
- -126 -12.75 867.9MHz, SF9BW125, 4/5CR
2026-05-05 21:58:49 12.0625°C 87.3125% 3.29V v2 No position 267 ttn.v3 - -111 -2 867.7MHz, SF9BW125, 4/5CR
2026-05-05 21:42:33 12.3125°C 86.875% 3.29V v2 No position 266 ttn.v3 - -107 -8 868.3MHz, SF9BW125, 4/5CR
2026-05-05 20:53:46 13.125°C 92.9375% 3.29V v2 No position 263 ttn.v3 - -113 1.5 867.3MHz, SF9BW125, 4/5CR
2026-05-05 20:37:30 13.3125°C 92.875% 3.28V v2 No position 262 ttn.v3 - -107 -7.75 868.5MHz, SF9BW125, 4/5CR
2026-05-05 20:21:14 13.375°C 91.625% 3.29V v2 No position 261 ttn.v3 - -113 0.75 867.1MHz, SF9BW125, 4/5CR
2026-05-05 19:48:42 13.75°C 87.875% 3.29V v2 No position 259 ttn.v3 - -115 -0.75 867.9MHz, SF9BW125, 4/5CR
- -122 -14.75 867.9MHz, SF9BW125, 4/5CR
2026-05-05 19:32:26 13.8125°C 89.1875% 3.29V v2 No position 258 ttn.v3 - -115 -3.5 868.1MHz, SF9BW125, 4/5CR
2026-05-05 19:16:10 13.6875°C 89.5% 3.29V v2 No position 257 ttn.v3 - -110 -0.5 867.7MHz, SF9BW125, 4/5CR
2026-05-05 18:59:54 13.5625°C 89.875% 3.29V v2 No position 256 ttn.v3 - -115 -4.5 868.5MHz, SF9BW125, 4/5CR
2026-05-05 18:43:38 13.5625°C 89.3125% 3.29V v2 No position 255 ttn.v3 - -111 0 867.5MHz, SF9BW125, 4/5CR
2026-05-05 18:27:22 13.625°C 89.625% 3.29V v2 No position 254 ttn.v3 - -103 -6.75 868.3MHz, SF9BW125, 4/5CR
2026-05-05 18:11:06 13.625°C 89.9375% 3.29V v2 No position 253 ttn.v3 - -113 1.75 867.3MHz, SF9BW125, 4/5CR
- -109 -7.5 867.3MHz, SF9BW125, 4/5CR
- -109 -7.5 867.3MHz, SF9BW125, 4/5CR
2026-05-05 17:54:50 13.6875°C 88.625% 3.29V v2 No position 252 ttn.v3 - -110 -4.5 868.1MHz, SF9BW125, 4/5CR
2026-05-05 17:38:34 13.6875°C 91.625% 3.29V v2 No position 251 ttn.v3 - -110 1 867.1MHz, SF9BW125, 4/5CR
- -109 -8 867.1MHz, SF9BW125, 4/5CR
- -109 -8 867.1MHz, SF9BW125, 4/5CR
2026-05-05 17:22:18 13.375°C 95.125% 3.29V v2 No position 250 ttn.v3 - -111 -8 868.5MHz, SF9BW125, 4/5CR
2026-05-05 17:06:03 12.8125°C 99% 3.29V v2 No position 249 ttn.v3 - -111 0.25 867.9MHz, SF9BW125, 4/5CR
- -116 -4 867.9MHz, SF9BW125, 4/5CR
- -116 -4 867.9MHz, SF9BW125, 4/5CR
- -125 -11 867.9MHz, SF9BW125, 4/5CR
2026-05-05 16:49:47 12.375°C 100.188% 3.29V v2 No position 248 ttn.v3 - -111 -9.25 868.3MHz, SF9BW125, 4/5CR
2026-05-05 16:33:31 12.5°C 99.625% 3.29V v2 No position 247 ttn.v3 - -113 0.75 867.7MHz, SF9BW125, 4/5CR
- -110 -9.25 867.7MHz, SF9BW125, 4/5CR
- -110 -9.25 867.7MHz, SF9BW125, 4/5CR
2026-05-05 16:17:16 12.6875°C 98.75% 3.29V v2 No position 246 ttn.v3 - -108 -1.25 868.1MHz, SF9BW125, 4/5CR
- -109 -9.25 868.1MHz, SF9BW125, 4/5CR
- -109 -9.25 868.1MHz, SF9BW125, 4/5CR
2026-05-05 15:44:44 12.75°C 100.312% 3.29V v2 No position 244 ttn.v3 - -107 -7.5 868.5MHz, SF9BW125, 4/5CR
2026-05-05 15:28:29 12.75°C 99.1875% 3.29V v2 No position 243 ttn.v3 - -111 2.25 867.3MHz, SF9BW125, 4/5CR
2026-05-05 15:12:13 12.875°C 99.5625% 3.29V v2 No position 242 ttn.v3 - -109 -8.75 868.3MHz, SF9BW125, 4/5CR
2026-05-05 14:55:57 12.875°C 100.812% 3.29V v2 No position 241 ttn.v3 - -113 0.25 867.1MHz, SF9BW125, 4/5CR
2026-05-05 14:39:41 12.6875°C 101.938% 3.29V v2 No position 240 ttn.v3 - -109 -4 868.1MHz, SF9BW125, 4/5CR
- -110 -12.75 868.1MHz, SF9BW125, 4/5CR
- -110 -12.75 868.1MHz, SF9BW125, 4/5CR
2026-05-05 14:23:26 12.75°C 100.625% 3.29V v2 No position 239 ttn.v3 - -114 0 867.9MHz, SF9BW125, 4/5CR
- -108 -8 867.9MHz, SF9BW125, 4/5CR
- -108 -8 867.9MHz, SF9BW125, 4/5CR
2026-05-05 14:07:10 12.625°C 102.125% 3.29V v2 No position 238 ttn.v3 - -115 -11.75 868.5MHz, SF9BW125, 4/5CR
2026-05-05 13:50:54 12.5625°C 104.312% 3.29V v2 No position 237 ttn.v3 - -113 2 867.7MHz, SF9BW125, 4/5CR
- -105 -11.75 867.7MHz, SF9BW125, 4/5CR
- -105 -11.75 867.7MHz, SF9BW125, 4/5CR
2026-05-05 13:34:39 12.1875°C 105.75% 3.29V v2 No position 236 ttn.v3 - -104 -7.75 868.3MHz, SF9BW125, 4/5CR
2026-05-05 13:18:23 12.125°C 109.938% 3.29V v2 No position 235 ttn.v3 - -111 -1.25 867.5MHz, SF9BW125, 4/5CR
2026-05-05 13:02:08 11.8125°C 113.375% 3.29V v2 No position 234 ttn.v3 - -115 -7.75 868.1MHz, SF9BW125, 4/5CR
2026-05-05 12:45:53 11.5625°C 115.375% 3.29V v2 No position 233 ttn.v3 - -111 1 867.3MHz, SF9BW125, 4/5CR
2026-05-05 12:13:22 10.6875°C 3.8125% 3.29V v2 No position 231 ttn.v3 - -113 -2.5 867.1MHz, SF9BW125, 4/5CR
2026-05-05 11:40:52 10.375°C 10.875% 3.29V v2 No position 229 ttn.v3 - -114 -2 867.9MHz, SF9BW125, 4/5CR
- -116 -8.5 867.9MHz, SF9BW125, 4/5CR
- -116 -8.5 867.9MHz, SF9BW125, 4/5CR
- -121 -10.5 867.9MHz, SF9BW125, 4/5CR
- -127 -12.25 867.9MHz, SF9BW125, 4/5CR
2026-05-05 11:08:22 10.25°C 13.8125% 3.29V v2 No position 227 ttn.v3 - -111 -1 867.7MHz, SF9BW125, 4/5CR
- -111 -3.5 867.7MHz, SF9BW125, 4/5CR
- -111 -3.5 867.7MHz, SF9BW125, 4/5CR
2026-05-05 10:52:07 10.25°C 16.375% 3.29V v2 No position 226 ttn.v3 - -113 -5.5 868.5MHz, SF9BW125, 4/5CR
2026-05-05 10:35:52 10.25°C 18.1875% 3.29V v2 No position 225 ttn.v3 - -110 -4.25 867.5MHz, SF9BW125, 4/5CR
2026-05-05 10:19:37 10.0625°C 19.4375% 3.29V v2 No position 224 ttn.v3 - -111 -8.75 868.3MHz, SF9BW125, 4/5CR
2026-05-05 10:03:22 10°C 20.8125% 3.29V v2 No position 223 ttn.v3 - -111 -0.25 867.3MHz, SF9BW125, 4/5CR
- -110 -6.5 867.3MHz, SF9BW125, 4/5CR
- -110 -6.5 867.3MHz, SF9BW125, 4/5CR
2026-05-05 09:47:07 10°C 22.125% 3.29V v2 No position 222 ttn.v3 - -107 -6.75 868.1MHz, SF9BW125, 4/5CR
2026-05-05 09:30:52 9.9375°C 22.375% 3.29V v2 No position 221 ttn.v3 - -115 -0.25 867.1MHz, SF9BW125, 4/5CR
- -121 -8 867.1MHz, SF9BW125, 4/5CR
2026-05-05 09:14:37 9.9375°C 24.3125% 3.29V v2 No position 220 ttn.v3 - -104 -6.75 868.5MHz, SF9BW125, 4/5CR
2026-05-05 08:58:23 9.9375°C 25% 3.29V v2 No position 219 ttn.v3 - -116 -2 867.9MHz, SF9BW125, 4/5CR
- -113 -6.25 867.9MHz, SF9BW125, 4/5CR
- -113 -6.25 867.9MHz, SF9BW125, 4/5CR
- -124 -11.5 867.9MHz, SF9BW125, 4/5CR
2026-05-05 08:42:08 9.875°C 24.3125% 3.29V v2 No position 218 ttn.v3 - -108 -8 868.3MHz, SF9BW125, 4/5CR
2026-05-05 08:25:53 9.9375°C 25.0625% 3.29V v2 No position 217 ttn.v3 - -115 -1.75 867.7MHz, SF9BW125, 4/5CR
- -113 -8.75 867.7MHz, SF9BW125, 4/5CR
- -113 -8.75 867.7MHz, SF9BW125, 4/5CR
- -128 -13.5 867.7MHz, SF9BW125, 4/5CR
2026-05-05 07:53:23 10°C 26.4375% 3.29V v2 No position 215 ttn.v3 - -100 -6.75 867.5MHz, SF9BW125, 4/5CR
2026-05-05 07:37:08 10.0625°C 26.375% 3.29V v2 No position 214 ttn.v3 - -110 -7.5 868.5MHz, SF9BW125, 4/5CR
2026-05-05 07:20:53 10.0625°C 25.75% 3.29V v2 No position 213 ttn.v3 - -113 0.5 867.3MHz, SF9BW125, 4/5CR
- -109 -6 867.3MHz, SF9BW125, 4/5CR
- -109 -6 867.3MHz, SF9BW125, 4/5CR
2026-05-05 07:04:38 10.125°C 25.0625% 3.29V v2 No position 212 ttn.v3 - -110 -4.25 868.3MHz, SF9BW125, 4/5CR
2026-05-05 06:48:23 10.1875°C 24.25% 3.29V v2 No position 211 ttn.v3 - -113 0.75 867.1MHz, SF9BW125, 4/5CR
2026-05-05 06:32:08 10.25°C 22.8125% 3.29V v2 No position 210 ttn.v3 - -108 -7.5 868.1MHz, SF9BW125, 4/5CR
2026-05-05 06:15:53 10.3125°C 22.1875% 3.29V v2 No position 209 ttn.v3 - -114 -1 867.9MHz, SF9BW125, 4/5CR
- -111 -5.75 867.9MHz, SF9BW125, 4/5CR
- -111 -5.75 867.9MHz, SF9BW125, 4/5CR
2026-05-05 05:59:38 10.5°C 22.9375% 3.29V v2 No position 208 ttn.v3 - -110 -8.25 868.5MHz, SF9BW125, 4/5CR
2026-05-05 05:43:23 10.625°C 23.875% 3.29V v2 No position 207 ttn.v3 - -111 -0.25 867.7MHz, SF9BW125, 4/5CR
2026-05-05 05:27:08 10.75°C 24.5% 3.29V v2 No position 206 ttn.v3 - -110 -8.75 868.3MHz, SF9BW125, 4/5CR
2026-05-05 04:54:37 11.0625°C 23.5625% 3.29V v2 No position 204 ttn.v3 - -113 -5.5 868.1MHz, SF9BW125, 4/5CR
2026-05-05 04:38:22 11.25°C 23% 3.28V v2 No position 203 ttn.v3 - -124 -14.75 867.3MHz, SF9BW125, 4/5CR
2026-05-05 04:05:51 11.75°C 17.125% 3.29V v2 No position 201 ttn.v3 - -111 -1 867.1MHz, SF9BW125, 4/5CR
2026-05-05 03:33:20 12°C 14.0625% 3.29V v2 No position 199 ttn.v3 - -115 0.5 867.9MHz, SF9BW125, 4/5CR
- -115 -11.5 867.9MHz, SF9BW125, 4/5CR
- -115 -11.5 867.9MHz, SF9BW125, 4/5CR
2026-05-05 03:00:50 12.25°C 13.5625% 3.29V v2 No position 197 ttn.v3 - -115 -1.5 867.7MHz, SF9BW125, 4/5CR
2026-05-05 02:44:34 12.5°C 15% 3.29V v2 No position 196 ttn.v3 - -113 -5.75 868.5MHz, SF9BW125, 4/5CR
2026-05-05 02:28:18 12.625°C 16.875% 3.29V v2 No position 195 ttn.v3 - -109 -1.5 867.5MHz, SF9BW125, 4/5CR
2026-05-05 02:12:03 12.6875°C 16.0625% 3.29V v2 No position 194 ttn.v3 - -110 -7.5 868.3MHz, SF9BW125, 4/5CR

Message count: 200
Node count: 1

Messages per node

Number of messages in list aboveNodes
200

Statistics per gateway

GatewayNumber of messagesNumber of nodesNodes
1981
831
201
81
11

Filter by dataset